MiSS Emily — WDF2689 — position and weather

sailwx.info

Track history (hours):
 
Tides and Currents Weather Stations Pressure Air Temp Water Temp Dewpoint Dewpoint Depression Visibility Wind Speed Wind Dir Waves Ship Positions

MiSS Emily

Owner: Marquette Transportation Company Offshore LLC, Jefferson, LA. More information available from US FCC via Universal Licensing System and Coast Guard Vessel Documentation Center.

Last reported at 2017-Nov-14 13:38 UTC. Time now 2017-Nov-17 17:55 UTC.
Position N 29°33' W 090°24'.

Length 26 m; draft 3 m.

Type: Tug. MMSI: 367430760.

Date/timePositionNaut miles runAvg speedWind from/ knotsBaromVisibWave heightAir tempDewpointWater temp
2017-Nov-14 13:38N 29°33' W 090°24'2 6.5
2017-Nov-14 13:22N 29°33' W 090°26'3 7.0
2017-Nov-14 13:00N 29°34' W 090°29'3 6.9
2017-Nov-14 12:30N 29°34' W 090°33'3 6.0
2017-Nov-14 12:01N 29°35' W 090°36'0 0.2
2017-Nov-14 11:28N 29°35' W 090°36'1 2.4
2017-Nov-14 11:00N 29°34' W 090°35'3 5.9
2017-Nov-14 10:30N 29°34' W 090°31'4 7.7
2017-Nov-14 10:00N 29°33' W 090°27'  
2017-Nov-12 05:04N 29°33' W 090°27'2 8.2
2017-Nov-12 04:53N 29°34' W 090°28'3 8.3
2017-Nov-12 04:30N 29°34' W 090°32'4 7.6
2017-Nov-12 04:00N 29°35' W 090°36'4 7.4
2017-Nov-12 03:30N 29°36' W 090°40'2 4.8
2017-Nov-12 03:00N 29°35' W 090°43'3 6.2
2017-Nov-12 02:30N 29°33' W 090°45'4 7.6
2017-Nov-12 02:00N 29°32' W 090°50'  
2017-Nov-06 00:47N 26°53' W 079°59'2 6.1
2017-Nov-06 00:30N 26°55' W 079°59'3 6.4
2017-Nov-06 00:00N 26°58' W 079°60'  
Track history (hours):
 
Tides and Currents Weather Stations Pressure Air Temp Water Temp Dewpoint Dewpoint Depression Visibility Wind Speed Wind Dir Waves Ship Positions

MiSS Emily

Owner: Marquette Transportation Company Offshore LLC, Jefferson, LA. More information available from US FCC via Universal Licensing System and Coast Guard Vessel Documentation Center.

Last reported at 2017-Nov-14 13:38 UTC. Time now 2017-Nov-17 17:55 UTC.
Position N 29°33' W 090°24'.

Length 26 m; draft 3 m.

Type: Tug. MMSI: 367430760.

Date/timePositionNaut miles runAvg speedWind from/ knotsBaromVisibWave heightAir tempDewpointWater temp
2017-Nov-14 13:38N 29°33' W 090°24'2 6.5
2017-Nov-14 13:22N 29°33' W 090°26'3 7.0
2017-Nov-14 13:00N 29°34' W 090°29'3 6.9
2017-Nov-14 12:30N 29°34' W 090°33'3 6.0
2017-Nov-14 12:01N 29°35' W 090°36'0 0.2
2017-Nov-14 11:28N 29°35' W 090°36'1 2.4
2017-Nov-14 11:00N 29°34' W 090°35'3 5.9
2017-Nov-14 10:30N 29°34' W 090°31'4 7.7
2017-Nov-14 10:00N 29°33' W 090°27'  
2017-Nov-12 05:04N 29°33' W 090°27'2 8.2
2017-Nov-12 04:53N 29°34' W 090°28'3 8.3
2017-Nov-12 04:30N 29°34' W 090°32'4 7.6
2017-Nov-12 04:00N 29°35' W 090°36'4 7.4
2017-Nov-12 03:30N 29°36' W 090°40'2 4.8
2017-Nov-12 03:00N 29°35' W 090°43'3 6.2
2017-Nov-12 02:30N 29°33' W 090°45'4 7.6
2017-Nov-12 02:00N 29°32' W 090°50'  
2017-Nov-06 00:47N 26°53' W 079°59'2 6.1
2017-Nov-06 00:30N 26°55' W 079°59'3 6.4
2017-Nov-06 00:00N 26°58' W 079°60'  

Dump ship's entire track history